Meteo Giornale » Osservazioni meteo Stati Uniti (USA) » Rickenbacker
ore: 12:55 - Osservazioni Meteo Rickenbacker
Lat. 39° 49' N Lon. 82° 56' W Alt. 227 metri s.l.m.
32 °C
Sereno
Temp. 24 Ore
22 °C
32 °C
Ovest
16.7 Km/h
Dew point 21 °C
Umidità 52 %
Visibilità 10 Km
Il sole sorge alle ore 06:59
Il sole tramonta alle ore 20:04
| Data e Ora | Cielo e Fenomeni | T °C | DP °C | Um. % | Pres. hPa | Vis. km | Vento km/h | |
|---|---|---|---|---|---|---|---|---|
| Oggi h: 12:55 | Sereno | 32 | 21 | 52 | 1020 | 10 | O 16.7 | |
| Oggi h: 11:55 | Sereno | 30 | 23 | 66 | 1020 | 10 | O/SO 9.3 | |
| Oggi h: 10:55 | Sereno | 27 | 22 | 74 | 1020 | 10 | S/SO 11.1 | |
| Oggi h: 09:55 | Sereno | 25 | 22 | 83 | 1020 | 10 | S/SO 7.4 | |
| Oggi h: 08:55 | Molto Nuvoloso | 23 | 22 | 94 | 1020 | 10 | N 5.5 | |
| Oggi h: 07:55 | Nuvoloso | 23 | 22 | 94 | 1019 | 10 | S 9.3 | |
| Oggi h: 06:55 | Sereno | 22 | 21 | 94 | 1019 | 10 | N 0 | |
| Oggi h: 05:55 | Nuvoloso | 22 | 21 | 94 | 1019 | 10 | S/SO 9.3 | |
| Oggi h: 04:55 | Sereno | 22 | 21 | 94 | 1019 | 10 | N 0 | |
| Oggi h: 03:55 | Sereno | 23 | 21 | 88 | 1018 | 10 | N 0 | |
| Oggi h: 02:55 | Sereno | 23 | 21 | 88 | 1019 | 10 | N 0 | |
| Oggi h: 01:55 | Sereno | 23 | 21 | 88 | 1019 | 10 | N 0 | |
| Oggi h: 00:55 | Sereno | 24 | 21 | 83 | 1019 | 10 | N 0 | |
| Ieri h: 23:55 | Sereno | 24 | 21 | 83 | 1019 | 10 | SE 7.4 | |
| Ieri h: 22:55 | Sereno | 24 | 21 | 83 | 1019 | 10 | SE 7.4 | |
| Ieri h: 21:55 | Nuvoloso | 25 | 22 | 83 | 1020 | 10 | N 0 | |
| Ieri h: 20:55 | Nuvoloso | 26 | 22 | 78 | 1019 | 10 | NE 7.4 | |
| Ieri h: 19:55 | Sereno | 28 | 20 | 61 | 1018 | 10 | N 0 | |
| Ieri h: 18:55 | Sereno | 30 | 19 | 51 | 1018 | 10 | S/SO 7.4 | |
| Ieri h: 17:55 | Sereno | 30 | 18 | 48 | 1018 | 10 | N 5.5 | |
| Ieri h: 16:55 | Sereno | 29 | 18 | 51 | 1018 | 10 | S 7.4 | |
| Ieri h: 15:55 | Sereno | 30 | 18 | 48 | 1019 | 10 | O/NO 14.8 | |
| Ieri h: 14:55 | Nuvoloso | 30 | 19 | 51 | 1020 | 10 | O 13 | |
| Ieri h: 13:55 | Nuvoloso | 30 | 20 | 55 | 1021 | 10 | O/NO 11.1 | |



